sensor_id;sensor_type;location;lat;lon;timestamp;temperature;humidity
16313;DHT22;8265;52.622;13.296;2022-12-18T00:00:07;-5.80;92.90
16313;DHT22;8265;52.622;13.296;2022-12-18T00:05:28;-5.70;93.00
16313;DHT22;8265;52.622;13.296;2022-12-18T00:10:48;-6.00;92.60
16313;DHT22;8265;52.622;13.296;2022-12-18T00:16:13;-6.10;93.10
16313;DHT22;8265;52.622;13.296;2022-12-18T00:21:31;-6.40;93.50
16313;DHT22;8265;52.622;13.296;2022-12-18T00:26:51;-6.30;94.50
16313;DHT22;8265;52.622;13.296;2022-12-18T00:32:12;-6.10;93.70
16313;DHT22;8265;52.622;13.296;2022-12-18T00:37:34;-6.10;93.90
16313;DHT22;8265;52.622;13.296;2022-12-18T00:42:54;-6.10;93.20
16313;DHT22;8265;52.622;13.296;2022-12-18T00:48:15;-6.10;93.40
16313;DHT22;8265;52.622;13.296;2022-12-18T00:53:36;-6.00;94.40
16313;DHT22;8265;52.622;13.296;2022-12-18T00:58:57;-6.10;92.10
16313;DHT22;8265;52.622;13.296;2022-12-18T01:04:18;-6.20;92.30
16313;DHT22;8265;52.622;13.296;2022-12-18T01:09:39;-6.10;92.20
16313;DHT22;8265;52.622;13.296;2022-12-18T01:15:00;-6.10;92.50
16313;DHT22;8265;52.622;13.296;2022-12-18T01:20:21;-6.10;92.30
16313;DHT22;8265;52.622;13.296;2022-12-18T01:25:42;-6.20;92.30
16313;DHT22;8265;52.622;13.296;2022-12-18T01:31:19;-6.30;93.00
16313;DHT22;8265;52.622;13.296;2022-12-18T01:36:25;-6.40;92.70
16313;DHT22;8265;52.622;13.296;2022-12-18T01:41:45;-6.30;91.80
16313;DHT22;8265;52.622;13.296;2022-12-18T01:47:06;-6.60;92.20
16313;DHT22;8265;52.622;13.296;2022-12-18T01:52:28;-6.70;92.10
16313;DHT22;8265;52.622;13.296;2022-12-18T01:57:48;-6.50;92.50
16313;DHT22;8265;52.622;13.296;2022-12-18T02:03:09;-6.90;93.00
16313;DHT22;8265;52.622;13.296;2022-12-18T02:08:32;-7.00;93.80
16313;DHT22;8265;52.622;13.296;2022-12-18T02:14:03;-6.70;93.40
16313;DHT22;8265;52.622;13.296;2022-12-18T02:19:39;-6.30;93.00
16313;DHT22;8265;52.622;13.296;2022-12-18T02:24:35;-6.60;92.00
16313;DHT22;8265;52.622;13.296;2022-12-18T02:29:54;-6.50;92.70
16313;DHT22;8265;52.622;13.296;2022-12-18T02:35:16;-6.30;92.20
16313;DHT22;8265;52.622;13.296;2022-12-18T02:40:36;-6.70;91.20
16313;DHT22;8265;52.622;13.296;2022-12-18T02:45:58;-6.80;92.30
16313;DHT22;8265;52.622;13.296;2022-12-18T02:51:25;-6.70;93.00
16313;DHT22;8265;52.622;13.296;2022-12-18T02:56:40;-6.60;92.70
16313;DHT22;8265;52.622;13.296;2022-12-18T03:07:23;-6.30;91.50
16313;DHT22;8265;52.622;13.296;2022-12-18T03:12:51;-6.20;91.00
16313;DHT22;8265;52.622;13.296;2022-12-18T03:18:04;-6.20;91.10
16313;DHT22;8265;52.622;13.296;2022-12-18T03:23:24;-6.10;89.70
16313;DHT22;8265;52.622;13.296;2022-12-18T03:29:27;-6.50;90.50
16313;DHT22;8265;52.622;13.296;2022-12-18T03:34:08;-6.60;91.40
16313;DHT22;8265;52.622;13.296;2022-12-18T03:39:26;-6.60;91.20
16313;DHT22;8265;52.622;13.296;2022-12-18T03:50:22;-6.70;92.00
16313;DHT22;8265;52.622;13.296;2022-12-18T03:55:30;-6.50;92.00
16313;DHT22;8265;52.622;13.296;2022-12-18T04:00:51;-6.60;91.80
16313;DHT22;8265;52.622;13.296;2022-12-18T04:06:11;-6.70;92.50
16313;DHT22;8265;52.622;13.296;2022-12-18T04:11:32;-6.60;91.60
16313;DHT22;8265;52.622;13.296;2022-12-18T04:16:53;-6.50;90.60
16313;DHT22;8265;52.622;13.296;2022-12-18T04:22:14;-6.40;90.50
16313;DHT22;8265;52.622;13.296;2022-12-18T04:27:35;-6.40;89.70
16313;DHT22;8265;52.622;13.296;2022-12-18T04:32:56;-6.60;90.60
16313;DHT22;8265;52.622;13.296;2022-12-18T04:38:17;-6.60;91.10
16313;DHT22;8265;52.622;13.296;2022-12-18T04:43:38;-6.60;91.10
16313;DHT22;8265;52.622;13.296;2022-12-18T04:48:59;-6.80;91.00
16313;DHT22;8265;52.622;13.296;2022-12-18T04:54:20;-7.00;91.60
16313;DHT22;8265;52.622;13.296;2022-12-18T04:59:41;-6.90;91.20
16313;DHT22;8265;52.622;13.296;2022-12-18T05:05:02;-7.00;91.50
16313;DHT22;8265;52.622;13.296;2022-12-18T05:10:23;-7.10;92.20
16313;DHT22;8265;52.622;13.296;2022-12-18T05:15:50;-7.00;91.60
16313;DHT22;8265;52.622;13.296;2022-12-18T05:21:05;-7.00;91.50
16313;DHT22;8265;52.622;13.296;2022-12-18T05:26:26;-6.70;90.90
16313;DHT22;8265;52.622;13.296;2022-12-18T05:31:47;-6.90;90.50
16313;DHT22;8265;52.622;13.296;2022-12-18T05:37:08;-7.00;90.50
16313;DHT22;8265;52.622;13.296;2022-12-18T05:42:30;-7.00;91.10
16313;DHT22;8265;52.622;13.296;2022-12-18T05:47:50;-7.00;90.80
16313;DHT22;8265;52.622;13.296;2022-12-18T05:53:11;-7.00;91.40
16313;DHT22;8265;52.622;13.296;2022-12-18T05:58:32;-6.90;90.90
16313;DHT22;8265;52.622;13.296;2022-12-18T06:03:53;-6.90;91.10
16313;DHT22;8265;52.622;13.296;2022-12-18T06:09:14;-6.80;90.60
16313;DHT22;8265;52.622;13.296;2022-12-18T06:14:35;-7.00;91.20
16313;DHT22;8265;52.622;13.296;2022-12-18T06:19:56;-6.90;90.60
16313;DHT22;8265;52.622;13.296;2022-12-18T06:25:17;-7.00;91.00
16313;DHT22;8265;52.622;13.296;2022-12-18T06:30:38;-7.10;91.60
16313;DHT22;8265;52.622;13.296;2022-12-18T06:36:03;-7.40;92.20
16313;DHT22;8265;52.622;13.296;2022-12-18T06:41:20;-7.20;91.80
16313;DHT22;8265;52.622;13.296;2022-12-18T06:46:41;-7.10;91.90
16313;DHT22;8265;52.622;13.296;2022-12-18T06:52:02;-7.00;91.40
16313;DHT22;8265;52.622;13.296;2022-12-18T06:57:23;-6.90;90.70
16313;DHT22;8265;52.622;13.296;2022-12-18T07:02:44;-6.80;90.20
16313;DHT22;8265;52.622;13.296;2022-12-18T07:08:05;-7.10;91.20
16313;DHT22;8265;52.622;13.296;2022-12-18T07:13:26;-7.10;91.60
16313;DHT22;8265;52.622;13.296;2022-12-18T07:18:47;-7.00;92.00
16313;DHT22;8265;52.622;13.296;2022-12-18T07:24:08;-6.90;91.20
16313;DHT22;8265;52.622;13.296;2022-12-18T07:29:29;-6.70;90.60
16313;DHT22;8265;52.622;13.296;2022-12-18T07:34:50;-6.70;89.70
16313;DHT22;8265;52.622;13.296;2022-12-18T07:40:11;-6.90;90.60
16313;DHT22;8265;52.622;13.296;2022-12-18T07:45:32;-6.90;90.30
16313;DHT22;8265;52.622;13.296;2022-12-18T07:50:53;-6.60;90.20
16313;DHT22;8265;52.622;13.296;2022-12-18T07:56:14;-6.80;89.70
16313;DHT22;8265;52.622;13.296;2022-12-18T08:01:35;-6.80;90.60
16313;DHT22;8265;52.622;13.296;2022-12-18T08:06:56;-6.90;90.30
16313;DHT22;8265;52.622;13.296;2022-12-18T08:12:17;-6.90;91.20
16313;DHT22;8265;52.622;13.296;2022-12-18T08:17:38;-6.60;91.10
16313;DHT22;8265;52.622;13.296;2022-12-18T08:23:02;-6.50;90.20
16313;DHT22;8265;52.622;13.296;2022-12-18T08:28:20;-6.60;90.60
16313;DHT22;8265;52.622;13.296;2022-12-18T08:33:41;-6.50;90.90
16313;DHT22;8265;52.622;13.296;2022-12-18T08:39:02;-6.30;90.50
16313;DHT22;8265;52.622;13.296;2022-12-18T08:44:23;-6.10;90.30
16313;DHT22;8265;52.622;13.296;2022-12-18T08:49:44;-6.00;90.20
16313;DHT22;8265;52.622;13.296;2022-12-18T08:55:05;-6.00;90.10
16313;DHT22;8265;52.622;13.296;2022-12-18T09:00:26;-6.00;90.30
16313;DHT22;8265;52.622;13.296;2022-12-18T09:05:47;-5.80;89.60
16313;DHT22;8265;52.622;13.296;2022-12-18T09:11:21;-5.60;88.80
16313;DHT22;8265;52.622;13.296;2022-12-18T09:16:29;-5.80;89.60
16313;DHT22;8265;52.622;13.296;2022-12-18T09:21:50;-5.70;88.70
16313;DHT22;8265;52.622;13.296;2022-12-18T09:27:11;-5.70;89.20
16313;DHT22;8265;52.622;13.296;2022-12-18T09:32:32;-5.60;89.30
16313;DHT22;8265;52.622;13.296;2022-12-18T09:37:53;-5.80;88.80
16313;DHT22;8265;52.622;13.296;2022-12-18T09:43:19;-5.30;89.50
16313;DHT22;8265;52.622;13.296;2022-12-18T09:48:35;-5.20;88.40
16313;DHT22;8265;52.622;13.296;2022-12-18T09:54:01;-5.10;87.30
16313;DHT22;8265;52.622;13.296;2022-12-18T09:59:36;-5.30;87.20
16313;DHT22;8265;52.622;13.296;2022-12-18T10:04:38;-5.20;87.80
16313;DHT22;8265;52.622;13.296;2022-12-18T10:15:24;-5.50;88.30
16313;DHT22;8265;52.622;13.296;2022-12-18T10:20:43;-5.10;87.60
16313;DHT22;8265;52.622;13.296;2022-12-18T10:31:23;-5.20;88.50
16313;DHT22;8265;52.622;13.296;2022-12-18T10:36:44;-5.20;87.50
16313;DHT22;8265;52.622;13.296;2022-12-18T10:42:14;-5.20;88.00
16313;DHT22;8265;52.622;13.296;2022-12-18T10:47:26;-5.00;88.20
16313;DHT22;8265;52.622;13.296;2022-12-18T10:52:52;-4.70;87.50
16313;DHT22;8265;52.622;13.296;2022-12-18T11:03:45;-4.90;88.40
16313;DHT22;8265;52.622;13.296;2022-12-18T11:09:02;-4.40;87.90
16313;DHT22;8265;52.622;13.296;2022-12-18T11:24:57;-4.20;87.30
16313;DHT22;8265;52.622;13.296;2022-12-18T11:35:37;-4.40;88.40
16313;DHT22;8265;52.622;13.296;2022-12-18T11:40:58;-4.30;88.70
16313;DHT22;8265;52.622;13.296;2022-12-18T11:46:18;-4.20;88.30
16313;DHT22;8265;52.622;13.296;2022-12-18T11:51:41;-4.10;88.70
16313;DHT22;8265;52.622;13.296;2022-12-18T12:08:02;-4.00;88.30
16313;DHT22;8265;52.622;13.296;2022-12-18T12:19:43;-4.30;89.00
16313;DHT22;8265;52.622;13.296;2022-12-18T12:30:20;-4.10;88.70
16313;DHT22;8265;52.622;13.296;2022-12-18T12:40:49;-4.20;89.00
16313;DHT22;8265;52.622;13.296;2022-12-18T12:46:07;-4.30;89.20
16313;DHT22;8265;52.622;13.296;2022-12-18T13:07:50;-4.20;88.30
16313;DHT22;8265;52.622;13.296;2022-12-18T13:12:52;-4.30;88.90
16313;DHT22;8265;52.622;13.296;2022-12-18T13:18:22;-4.30;89.70
16313;DHT22;8265;52.622;13.296;2022-12-18T13:23:34;-4.20;88.00
16313;DHT22;8265;52.622;13.296;2022-12-18T13:28:55;-4.30;88.80
16313;DHT22;8265;52.622;13.296;2022-12-18T13:34:17;-4.40;89.50
16313;DHT22;8265;52.622;13.296;2022-12-18T13:39:36;-4.30;89.50
16313;DHT22;8265;52.622;13.296;2022-12-18T13:44:57;-4.00;90.00
16313;DHT22;8265;52.622;13.296;2022-12-18T13:50:24;-4.00;87.80
16313;DHT22;8265;52.622;13.296;2022-12-18T13:55:39;-3.80;88.30
16313;DHT22;8265;52.622;13.296;2022-12-18T14:01:00;-4.00;87.10
16313;DHT22;8265;52.622;13.296;2022-12-18T14:06:21;-4.20;88.40
16313;DHT22;8265;52.622;13.296;2022-12-18T14:11:49;-4.30;88.60
16313;DHT22;8265;52.622;13.296;2022-12-18T14:17:03;-4.60;89.40
16313;DHT22;8265;52.622;13.296;2022-12-18T14:22:24;-4.40;90.30
16313;DHT22;8265;52.622;13.296;2022-12-18T14:27:52;-4.20;89.30
16313;DHT22;8265;52.622;13.296;2022-12-18T14:33:16;-4.30;88.90
16313;DHT22;8265;52.622;13.296;2022-12-18T14:38:34;-4.00;88.20
16313;DHT22;8265;52.622;13.296;2022-12-18T14:43:49;-4.40;88.10
16313;DHT22;8265;52.622;13.296;2022-12-18T14:49:26;-4.60;89.00
16313;DHT22;8265;52.622;13.296;2022-12-18T14:54:30;-4.60;90.30
16313;DHT22;8265;52.622;13.296;2022-12-18T14:59:51;-4.60;89.90
16313;DHT22;8265;52.622;13.296;2022-12-18T15:10:33;-4.60;90.50
16313;DHT22;8265;52.622;13.296;2022-12-18T15:15:55;-4.60;90.40
16313;DHT22;8265;52.622;13.296;2022-12-18T15:21:18;-4.40;89.90
16313;DHT22;8265;52.622;13.296;2022-12-18T15:26:36;-4.50;89.90
16313;DHT22;8265;52.622;13.296;2022-12-18T15:32:04;-4.60;89.30
16313;DHT22;8265;52.622;13.296;2022-12-18T15:37:18;-4.60;89.60
16313;DHT22;8265;52.622;13.296;2022-12-18T15:42:39;-4.40;88.20
16313;DHT22;8265;52.622;13.296;2022-12-18T15:48:00;-4.50;89.00
16313;DHT22;8265;52.622;13.296;2022-12-18T15:53:21;-4.60;89.60
16313;DHT22;8265;52.622;13.296;2022-12-18T15:58:42;-4.80;89.00
16313;DHT22;8265;52.622;13.296;2022-12-18T16:04:03;-4.60;90.50
16313;DHT22;8265;52.622;13.296;2022-12-18T16:09:24;-4.50;88.30
16313;DHT22;8265;52.622;13.296;2022-12-18T16:14:45;-4.80;89.40
16313;DHT22;8265;52.622;13.296;2022-12-18T16:20:11;-4.60;88.60
16313;DHT22;8265;52.622;13.296;2022-12-18T16:25:27;-4.70;89.60
16313;DHT22;8265;52.622;13.296;2022-12-18T16:30:48;-4.80;90.10
16313;DHT22;8265;52.622;13.296;2022-12-18T16:36:09;-4.90;90.30
16313;DHT22;8265;52.622;13.296;2022-12-18T16:41:30;-4.20;88.90
16313;DHT22;8265;52.622;13.296;2022-12-18T16:46:52;-4.60;88.00
16313;DHT22;8265;52.622;13.296;2022-12-18T16:52:12;-4.80;88.80
16313;DHT22;8265;52.622;13.296;2022-12-18T16:57:33;-4.70;89.00
16313;DHT22;8265;52.622;13.296;2022-12-18T17:02:54;-4.80;88.60
16313;DHT22;8265;52.622;13.296;2022-12-18T17:08:15;-5.00;89.60
16313;DHT22;8265;52.622;13.296;2022-12-18T17:13:36;-4.40;88.90
16313;DHT22;8265;52.622;13.296;2022-12-18T17:18:57;-4.60;88.40
16313;DHT22;8265;52.622;13.296;2022-12-18T17:24:18;-4.60;88.20
16313;DHT22;8265;52.622;13.296;2022-12-18T17:29:39;-4.80;88.40
16313;DHT22;8265;52.622;13.296;2022-12-18T17:35:00;-5.10;89.20
16313;DHT22;8265;52.622;13.296;2022-12-18T17:40:21;-5.30;89.80
16313;DHT22;8265;52.622;13.296;2022-12-18T17:45:42;-5.40;90.30
16313;DHT22;8265;52.622;13.296;2022-12-18T17:51:04;-5.30;90.40
16313;DHT22;8265;52.622;13.296;2022-12-18T17:56:24;-4.80;89.30
16313;DHT22;8265;52.622;13.296;2022-12-18T18:01:45;-5.00;88.70
16313;DHT22;8265;52.622;13.296;2022-12-18T18:07:06;-5.20;89.50
16313;DHT22;8265;52.622;13.296;2022-12-18T18:12:27;-5.20;89.40
16313;DHT22;8265;52.622;13.296;2022-12-18T18:17:48;-4.60;88.10
16313;DHT22;8265;52.622;13.296;2022-12-18T18:23:09;-4.90;88.30
16313;DHT22;8265;52.622;13.296;2022-12-18T18:28:30;-5.20;88.70
16313;DHT22;8265;52.622;13.296;2022-12-18T18:33:51;-5.50;89.80
16313;DHT22;8265;52.622;13.296;2022-12-18T18:39:12;-5.40;90.10
16313;DHT22;8265;52.622;13.296;2022-12-18T18:44:32;-5.60;90.20
16313;DHT22;8265;52.622;13.296;2022-12-18T18:49:53;-5.60;89.80
16313;DHT22;8265;52.622;13.296;2022-12-18T18:55:14;-5.70;90.30
16313;DHT22;8265;52.622;13.296;2022-12-18T19:00:35;-5.70;90.30
16313;DHT22;8265;52.622;13.296;2022-12-18T19:05:57;-5.60;89.80
16313;DHT22;8265;52.622;13.296;2022-12-18T19:11:18;-5.30;89.30
16313;DHT22;8265;52.622;13.296;2022-12-18T19:16:39;-5.50;88.90
16313;DHT22;8265;52.622;13.296;2022-12-18T19:21:59;-5.50;89.30
16313;DHT22;8265;52.622;13.296;2022-12-18T19:27:20;-5.40;88.50
16313;DHT22;8265;52.622;13.296;2022-12-18T19:32:41;-5.40;89.90
16313;DHT22;8265;52.622;13.296;2022-12-18T19:38:02;-5.50;88.60
16313;DHT22;8265;52.622;13.296;2022-12-18T19:43:23;-5.50;88.20
16313;DHT22;8265;52.622;13.296;2022-12-18T19:48:44;-5.40;88.10
16313;DHT22;8265;52.622;13.296;2022-12-18T19:54:05;-5.40;87.80
16313;DHT22;8265;52.622;13.296;2022-12-18T19:59:26;-5.50;87.90
16313;DHT22;8265;52.622;13.296;2022-12-18T20:04:47;-5.50;87.50
16313;DHT22;8265;52.622;13.296;2022-12-18T20:10:09;-5.40;87.30
16313;DHT22;8265;52.622;13.296;2022-12-18T20:15:29;-5.60;87.40
16313;DHT22;8265;52.622;13.296;2022-12-18T20:20:50;-5.60;87.50
16313;DHT22;8265;52.622;13.296;2022-12-18T20:26:11;-5.50;87.70
16313;DHT22;8265;52.622;13.296;2022-12-18T20:31:32;-5.40;87.00
16313;DHT22;8265;52.622;13.296;2022-12-18T20:36:53;-5.40;86.70
16313;DHT22;8265;52.622;13.296;2022-12-18T20:42:14;-5.50;87.20
16313;DHT22;8265;52.622;13.296;2022-12-18T20:47:35;-5.40;87.10
16313;DHT22;8265;52.622;13.296;2022-12-18T20:52:56;-5.40;86.60
16313;DHT22;8265;52.622;13.296;2022-12-18T20:58:17;-5.50;86.80
16313;DHT22;8265;52.622;13.296;2022-12-18T21:03:39;-5.30;86.00
16313;DHT22;8265;52.622;13.296;2022-12-18T21:08:59;-5.00;88.10
16313;DHT22;8265;52.622;13.296;2022-12-18T21:14:22;-4.90;83.60
16313;DHT22;8265;52.622;13.296;2022-12-18T21:19:41;-5.30;85.00
16313;DHT22;8265;52.622;13.296;2022-12-18T21:25:03;-5.40;85.30
16313;DHT22;8265;52.622;13.296;2022-12-18T21:30:23;-5.40;85.60
16313;DHT22;8265;52.622;13.296;2022-12-18T21:35:44;-5.30;85.50
16313;DHT22;8265;52.622;13.296;2022-12-18T21:41:06;-5.30;84.80
16313;DHT22;8265;52.622;13.296;2022-12-18T21:46:26;-5.20;85.00
16313;DHT22;8265;52.622;13.296;2022-12-18T21:51:48;-5.20;84.70
16313;DHT22;8265;52.622;13.296;2022-12-18T21:57:09;-5.30;85.20
16313;DHT22;8265;52.622;13.296;2022-12-18T22:02:29;-5.40;85.80
16313;DHT22;8265;52.622;13.296;2022-12-18T22:07:50;-5.00;85.50
16313;DHT22;8265;52.622;13.296;2022-12-18T22:13:11;-5.10;84.20
16313;DHT22;8265;52.622;13.296;2022-12-18T22:18:32;-5.40;84.80
16313;DHT22;8265;52.622;13.296;2022-12-18T22:24:03;-5.20;84.40
16313;DHT22;8265;52.622;13.296;2022-12-18T22:29:15;-5.00;83.80
16313;DHT22;8265;52.622;13.296;2022-12-18T22:34:35;-4.80;83.60
16313;DHT22;8265;52.622;13.296;2022-12-18T22:39:56;-5.00;83.10
16313;DHT22;8265;52.622;13.296;2022-12-18T22:45:17;-5.00;83.20
16313;DHT22;8265;52.622;13.296;2022-12-18T22:50:38;-4.90;83.30
16313;DHT22;8265;52.622;13.296;2022-12-18T22:56:02;-4.90;82.80
16313;DHT22;8265;52.622;13.296;2022-12-18T23:01:21;-4.90;82.40
16313;DHT22;8265;52.622;13.296;2022-12-18T23:06:42;-4.80;82.10
16313;DHT22;8265;52.622;13.296;2022-12-18T23:12:02;-4.70;82.20
16313;DHT22;8265;52.622;13.296;2022-12-18T23:17:23;-4.80;82.10
16313;DHT22;8265;52.622;13.296;2022-12-18T23:22:44;-4.90;81.70
16313;DHT22;8265;52.622;13.296;2022-12-18T23:28:05;-5.10;82.30
16313;DHT22;8265;52.622;13.296;2022-12-18T23:33:26;-5.10;82.60
16313;DHT22;8265;52.622;13.296;2022-12-18T23:38:57;-4.90;82.00
16313;DHT22;8265;52.622;13.296;2022-12-18T23:44:08;-5.00;81.30
16313;DHT22;8265;52.622;13.296;2022-12-18T23:49:29;-5.00;81.90
16313;DHT22;8265;52.622;13.296;2022-12-18T23:54:50;-5.00;81.30
